createdAt,value
2018-08-28T00:02:40.187Z,78.40
2018-08-28T00:05:20.677Z,78.50
2018-08-28T00:08:01.409Z,78.60
2018-08-28T00:10:41.994Z,78.40
2018-08-28T00:13:23.423Z,78.40
2018-08-28T00:16:06.742Z,78.30
2018-08-28T00:18:47.303Z,78.40
2018-08-28T00:21:27.651Z,78.40
2018-08-28T00:24:10.251Z,78.50
2018-08-28T00:26:54.538Z,78.60
2018-08-28T00:29:37.879Z,78.40
2018-08-28T00:32:19.768Z,78.20
2018-08-28T00:35:00.172Z,78.30
2018-08-28T00:37:40.783Z,78.20
2018-08-28T00:40:21.328Z,78.30
2018-08-28T00:43:01.957Z,78.00
2018-08-28T00:45:42.511Z,78.20
2018-08-28T00:48:23.145Z,78.00
2018-08-28T00:51:04.808Z,78.00
2018-08-28T00:53:45.199Z,78.10
2018-08-28T00:56:25.676Z,78.30
2018-08-28T00:59:07.904Z,78.10
2018-08-28T01:01:48.579Z,78.10
2018-08-28T01:04:29.096Z,77.90
2018-08-28T01:07:09.629Z,77.30
2018-08-28T01:09:50.113Z,78.10
2018-08-28T01:12:30.599Z,77.00
2018-08-28T01:15:11.068Z,76.90
2018-08-28T01:17:51.549Z,76.80
2018-08-28T01:20:32.205Z,76.80
2018-08-28T01:23:12.668Z,76.40
2018-08-28T01:25:53.180Z,76.50
2018-08-28T01:28:34.664Z,76.50
2018-08-28T01:31:15.281Z,76.90
2018-08-28T01:33:55.796Z,77.20
2018-08-28T01:36:38.335Z,77.20
2018-08-28T01:39:18.818Z,77.10
2018-08-28T01:41:59.785Z,76.70
2018-08-28T01:44:40.880Z,76.60
2018-08-28T01:47:22.640Z,77.50
2018-08-28T01:50:03.660Z,76.20
2018-08-28T01:52:44.113Z,76.30
2018-08-28T01:55:24.675Z,76.30
2018-08-28T01:58:07.771Z,76.10
2018-08-28T02:00:48.975Z,75.70
2018-08-28T02:03:29.467Z,75.30
2018-08-28T02:06:09.883Z,75.20
2018-08-28T02:08:50.391Z,75.10
2018-08-28T02:11:31.411Z,74.90
2018-08-28T02:14:11.986Z,74.50
2018-08-28T02:16:52.465Z,74.20
2018-08-28T02:45:35.320Z,73.40
2018-08-28T02:48:15.796Z,72.90
2018-08-28T02:50:58.954Z,72.70
2018-08-28T02:53:39.385Z,73.00
2018-08-28T02:56:20.052Z,72.80
2018-08-28T02:59:00.649Z,72.80
2018-08-28T03:01:41.085Z,72.60
2018-08-28T03:04:21.708Z,72.90
2018-08-28T03:07:02.200Z,72.80
2018-08-28T03:09:42.749Z,72.30
2018-08-28T03:12:23.212Z,72.50
2018-08-28T03:15:03.668Z,71.90
2018-08-28T03:17:44.172Z,71.50
2018-08-28T03:20:25.916Z,71.40
2018-08-28T03:23:06.444Z,71.70
2018-08-28T03:25:47.404Z,71.10
2018-08-28T03:28:29.706Z,72.60
2018-08-28T03:31:10.184Z,71.20
2018-08-28T03:33:50.777Z,70.60
2018-08-28T03:36:32.149Z,70.20
2018-08-28T03:39:12.804Z,70.40
2018-08-28T03:41:55.424Z,69.80
2018-08-28T03:44:35.952Z,69.80
2018-08-28T03:47:16.570Z,70.00
2018-08-28T03:49:58.984Z,70.30
2018-08-28T03:52:39.531Z,69.90
2018-08-28T03:55:20.212Z,69.60
2018-08-28T03:58:00.752Z,69.50
2018-08-28T04:00:41.322Z,69.50
2018-08-28T04:03:21.840Z,69.40
2018-08-28T04:06:02.392Z,69.70
2018-08-28T04:08:42.929Z,69.50
2018-08-28T04:11:25.223Z,69.20
2018-08-28T04:14:05.745Z,69.30
2018-08-28T04:16:46.710Z,69.50
2018-08-28T04:19:30.195Z,69.60
2018-08-28T04:22:10.764Z,69.40
2018-08-28T04:24:51.305Z,68.90
2018-08-28T04:27:31.833Z,69.20
2018-08-28T04:30:12.413Z,69.10
2018-08-28T04:32:52.860Z,69.00
2018-08-28T04:35:33.209Z,68.80
2018-08-28T04:38:14.051Z,68.50
2018-08-28T04:40:58.113Z,68.20
2018-08-28T04:43:38.553Z,68.40
2018-08-28T04:46:19.187Z,68.50
2018-08-28T04:49:00.873Z,68.30
2018-08-28T04:51:42.316Z,68.20
2018-08-28T04:54:22.804Z,68.50
2018-08-28T04:57:03.361Z,68.40
2018-08-28T04:59:44.008Z,68.50
2018-08-28T05:02:29.606Z,68.10
2018-08-28T05:05:10.420Z,69.00
2018-08-28T05:07:51.014Z,69.40
2018-08-28T05:10:31.632Z,69.60
2018-08-28T05:13:12.119Z,69.50
2018-08-28T05:15:52.688Z,69.20
2018-08-28T05:18:33.345Z,69.20
2018-08-28T05:21:13.664Z,69.20
2018-08-28T05:23:58.029Z,69.10
2018-08-28T05:26:38.480Z,70.60
2018-08-28T05:29:18.956Z,69.70
2018-08-28T05:32:01.221Z,70.10
2018-08-28T05:34:41.690Z,70.50
2018-08-28T05:37:22.119Z,70.70
2018-08-28T05:40:02.536Z,70.90
2018-08-28T05:42:43.113Z,70.50
2018-08-28T05:45:24.992Z,70.10
2018-08-28T05:48:05.957Z,70.10
2018-08-28T05:50:46.317Z,70.90
2018-08-28T05:53:29.400Z,71.40
2018-08-28T05:56:10.619Z,71.00
2018-08-28T05:58:51.317Z,71.40
2018-08-28T06:01:31.932Z,71.70
2018-08-28T06:04:12.521Z,70.90
2018-08-28T06:06:53.162Z,68.50
2018-08-28T06:09:34.136Z,64.80
2018-08-28T06:12:14.691Z,63.10
2018-08-28T06:14:57.802Z,63.30
2018-08-28T06:17:38.331Z,61.50
2018-08-28T06:20:18.896Z,60.30
2018-08-28T06:23:00.765Z,60.30
2018-08-28T06:25:41.349Z,59.80
2018-08-28T06:28:21.860Z,59.70
2018-08-28T06:31:02.935Z,59.30
2018-08-28T06:33:43.760Z,59.70
2018-08-28T06:36:26.148Z,59.70
2018-08-28T06:39:09.134Z,59.30
2018-08-28T06:41:49.522Z,59.50
2018-08-28T06:44:30.749Z,59.70
2018-08-28T06:47:11.279Z,59.70
2018-08-28T06:49:51.808Z,59.70
2018-08-28T06:52:32.211Z,59.60
2018-08-28T06:55:12.744Z,59.20
2018-08-28T06:57:54.965Z,59.10
2018-08-28T07:00:35.433Z,59.30
2018-08-28T07:03:15.972Z,59.50
2018-08-28T07:05:59.545Z,60.00
2018-08-28T07:08:39.995Z,60.20
2018-08-28T07:11:20.392Z,59.80
2018-08-28T07:14:04.853Z,59.50
2018-08-28T07:16:45.360Z,59.10
2018-08-28T07:19:27.984Z,58.20
2018-08-28T07:22:08.485Z,56.70
2018-08-28T07:24:49.021Z,56.90
2018-08-28T07:27:31.002Z,57.20
2018-08-28T07:30:11.469Z,57.30
2018-08-28T07:32:52.025Z,57.40
2018-08-28T07:35:32.528Z,57.60
2018-08-28T07:38:13.090Z,57.70
2018-08-28T07:40:54.844Z,57.80
2018-08-28T07:43:35.904Z,57.70
2018-08-28T07:46:17.364Z,56.50
2018-08-28T07:48:59.341Z,56.40
2018-08-28T07:51:40.030Z,56.40
2018-08-28T07:54:20.624Z,55.80
2018-08-28T07:57:01.187Z,56.00
2018-08-28T07:59:41.688Z,55.70
2018-08-28T08:02:22.085Z,54.60
2018-08-28T08:05:02.615Z,54.60
2018-08-28T08:07:43.197Z,54.60
2018-08-28T08:10:25.046Z,54.20
2018-08-28T08:13:05.440Z,55.90
2018-08-28T08:15:46.127Z,54.70
2018-08-28T08:18:28.708Z,55.60
2018-08-28T08:21:09.055Z,55.10
2018-08-28T08:23:49.680Z,55.60
2018-08-28T08:26:30.544Z,55.50
2018-08-28T08:29:11.242Z,54.60
2018-08-28T08:31:51.620Z,55.20
2018-08-28T08:34:32.141Z,53.60
2018-08-28T08:37:13.104Z,54.70
2018-08-28T08:39:54.616Z,54.70
2018-08-28T08:42:35.269Z,55.40
2018-08-28T08:45:15.745Z,54.10
2018-08-28T08:47:59.246Z,52.80
2018-08-28T08:50:39.628Z,54.90
2018-08-28T08:53:20.138Z,54.10
2018-08-28T08:56:00.593Z,54.10
2018-08-28T08:58:41.108Z,54.60
2018-08-28T09:01:22.732Z,54.00
2018-08-28T09:04:03.634Z,54.70
2018-08-28T09:06:44.297Z,55.50
2018-08-28T09:09:27.966Z,55.00
2018-08-28T09:12:08.519Z,56.00
2018-08-28T09:14:48.913Z,54.90
2018-08-28T09:17:30.588Z,56.90
2018-08-28T09:20:11.136Z,55.20
2018-08-28T09:22:51.752Z,55.80
2018-08-28T09:25:33.335Z,56.00
2018-08-28T09:28:13.880Z,55.40
2018-08-28T09:30:55.984Z,55.70
2018-08-28T09:33:36.529Z,55.60
2018-08-28T09:36:17.269Z,55.70
2018-08-28T09:38:59.192Z,57.70
2018-08-28T09:41:39.669Z,57.70
2018-08-28T09:44:20.201Z,57.20
2018-08-28T09:47:00.828Z,56.30
2018-08-28T09:49:41.522Z,57.20
2018-08-28T09:52:22.459Z,56.90
2018-08-28T09:55:03.204Z,58.20
2018-08-28T09:57:43.834Z,57.10
2018-08-28T10:00:28.639Z,55.80
2018-08-28T10:03:09.533Z,56.90
2018-08-28T10:05:50.279Z,58.00
2018-08-28T10:08:30.820Z,57.80
2018-08-28T10:11:11.391Z,56.40
2018-08-28T10:13:52.009Z,55.50
2018-08-28T10:16:32.465Z,56.90
2018-08-28T10:19:13.009Z,56.30
2018-08-28T10:21:54.633Z,56.70
2018-08-28T10:24:35.167Z,56.70
2018-08-28T10:27:16.087Z,57.40
2018-08-28T10:29:59.358Z,57.50
2018-08-28T10:32:39.868Z,57.50
2018-08-28T10:35:20.414Z,57.70
2018-08-28T10:38:00.863Z,58.00
2018-08-28T10:40:41.733Z,56.50
2018-08-28T10:43:22.323Z,56.60
2018-08-28T10:46:33.584Z,57.20
2018-08-28T10:49:14.018Z,59.10
2018-08-28T10:51:57.934Z,58.20
2018-08-28T10:54:38.508Z,57.90
2018-08-28T10:57:22.906Z,57.30
2018-08-28T11:00:03.497Z,56.10
2018-08-28T11:02:44.551Z,56.10
2018-08-28T11:05:27.687Z,56.10
2018-08-28T11:08:08.759Z,56.20
2018-08-28T11:10:49.194Z,55.50
2018-08-28T11:13:30.577Z,55.70
2018-08-28T11:16:11.310Z,55.80
2018-08-28T11:18:51.712Z,55.90
2018-08-28T11:21:32.231Z,57.00
2018-08-28T11:24:13.689Z,56.70
2018-08-28T11:26:58.942Z,56.10
2018-08-28T11:29:39.501Z,56.10
2018-08-28T11:32:21.276Z,57.80
2018-08-28T11:35:01.744Z,57.40
2018-08-28T11:37:42.348Z,57.20
2018-08-28T11:40:22.909Z,57.20
2018-08-28T11:43:03.324Z,58.30
2018-08-28T11:45:43.959Z,58.50
2018-08-28T11:48:27.943Z,58.50
2018-08-28T11:51:08.331Z,58.70
2018-08-28T11:53:49.744Z,58.00
2018-08-28T11:56:30.689Z,58.60
2018-08-28T11:59:11.393Z,58.60
2018-08-28T12:01:52.054Z,58.80
2018-08-28T12:04:32.579Z,58.80
2018-08-28T12:07:13.182Z,58.80
2018-08-28T12:09:55.139Z,58.80
2018-08-28T12:12:35.575Z,58.60
2018-08-28T12:15:16.196Z,58.60
2018-08-28T12:17:59.954Z,58.50
2018-08-28T12:20:40.484Z,58.50
2018-08-28T12:23:21.144Z,58.40
2018-08-28T12:26:01.864Z,58.30
2018-08-28T12:28:42.384Z,58.50
2018-08-28T12:31:24.536Z,58.60
2018-08-28T12:34:05.405Z,58.80
2018-08-28T12:36:46.193Z,57.30
2018-08-28T12:39:29.677Z,56.60
2018-08-28T12:42:10.043Z,55.50
2018-08-28T12:44:50.565Z,55.70
2018-08-28T12:47:31.505Z,52.80
2018-08-28T12:50:11.928Z,52.70
2018-08-28T12:52:54.662Z,53.80
2018-08-28T12:55:35.329Z,54.30
2018-08-28T12:58:16.181Z,55.00
2018-08-28T13:00:58.992Z,54.30
2018-08-28T13:03:39.546Z,54.60
2018-08-28T13:06:22.034Z,55.60
2018-08-28T13:09:02.508Z,54.30
2018-08-28T13:12:03.728Z,53.70
2018-08-28T13:14:44.553Z,54.00
2018-08-28T13:17:26.437Z,54.40
2018-08-28T13:20:07.201Z,55.60
2018-08-28T13:22:48.116Z,54.40
2018-08-28T13:25:31.706Z,55.60
2018-08-28T13:28:14.444Z,56.20
2018-08-28T13:30:56.202Z,56.20
2018-08-28T13:33:36.650Z,55.80
2018-08-28T13:36:17.346Z,56.10
2018-08-28T13:39:00.251Z,55.60
2018-08-28T13:41:40.799Z,56.40
2018-08-28T13:44:30.363Z,56.00
2018-08-28T13:47:11.513Z,55.20
2018-08-28T13:49:51.998Z,56.00
2018-08-28T13:52:32.563Z,56.30
2018-08-28T13:55:13.254Z,56.90
2018-08-28T13:57:53.788Z,56.40
2018-08-28T14:00:34.646Z,57.10
2018-08-28T14:03:16.219Z,57.10
2018-08-28T14:05:59.004Z,57.10
2018-08-28T14:08:39.515Z,57.50
2018-08-28T14:11:20.973Z,56.30
2018-08-28T14:14:02.258Z,55.50
2018-08-28T14:16:42.836Z,56.60
2018-08-28T14:19:23.857Z,57.00
2018-08-28T14:22:04.724Z,57.80
2018-08-28T14:24:45.648Z,56.60
2018-08-28T14:27:29.050Z,57.40
2018-08-28T14:30:09.621Z,56.70
2018-08-28T14:32:50.543Z,57.70
2018-08-28T14:35:32.438Z,56.60
2018-08-28T14:38:14.026Z,56.30
2018-08-28T14:40:56.342Z,57.90
2018-08-28T14:43:36.928Z,57.40
2018-08-28T14:46:17.537Z,56.10
2018-08-28T14:49:01.440Z,55.60
2018-08-28T14:51:42.009Z,56.00
2018-08-28T14:54:22.805Z,57.00
2018-08-28T14:57:05.001Z,56.30
2018-08-28T14:59:45.475Z,57.80
2018-08-28T15:02:27.209Z,58.30
2018-08-28T15:05:09.689Z,55.90
2018-08-28T15:07:51.301Z,56.30
2018-08-28T15:10:32.209Z,56.90
2018-08-28T15:13:12.656Z,57.20
2018-08-28T15:15:53.889Z,57.30
2018-08-28T15:18:35.050Z,56.90
2018-08-28T15:21:15.678Z,56.90
2018-08-28T15:23:57.360Z,56.40
2018-08-28T15:26:38.296Z,57.30
2018-08-28T15:29:18.716Z,56.60
2018-08-28T15:32:01.617Z,56.70
2018-08-28T15:34:42.416Z,57.10
2018-08-28T15:37:23.437Z,55.50
2018-08-28T15:40:04.534Z,55.50
2018-08-28T15:42:45.189Z,55.80
2018-08-28T15:45:26.484Z,56.30
2018-08-28T15:48:07.600Z,56.60
2018-08-28T15:50:48.196Z,56.60
2018-08-28T15:53:30.948Z,56.60
2018-08-28T15:56:12.770Z,56.80
2018-08-28T15:58:53.307Z,56.60
2018-08-28T16:01:33.834Z,56.20
2018-08-28T16:04:19.408Z,56.90
2018-08-28T16:07:01.612Z,57.80
2018-08-28T16:09:42.270Z,57.50
2018-08-28T16:12:22.838Z,57.60
2018-08-28T16:15:03.360Z,57.70
2018-08-28T16:17:45.708Z,57.60
2018-08-28T16:20:30.234Z,57.60
2018-08-28T16:23:44.253Z,57.60
2018-08-28T16:26:24.656Z,57.50
2018-08-28T16:29:05.180Z,57.60
2018-08-28T16:31:45.573Z,57.50
2018-08-28T16:34:27.580Z,57.50
2018-08-28T16:37:08.138Z,57.40
2018-08-28T16:39:49.533Z,57.40
2018-08-28T16:42:31.925Z,57.40
2018-08-28T16:45:12.298Z,57.30
2018-08-28T16:47:53.751Z,57.30
2018-08-28T16:50:35.342Z,57.40
2018-08-28T16:53:15.823Z,57.30
2018-08-28T16:55:59.641Z,57.30
2018-08-28T16:58:40.284Z,57.20
2018-08-28T17:01:21.342Z,57.20
2018-08-28T17:04:02.376Z,57.20
2018-08-28T17:06:43.022Z,57.20
2018-08-28T17:09:24.263Z,57.10
2018-08-28T17:12:05.225Z,57.10
2018-08-28T17:14:45.971Z,57.20
2018-08-28T17:17:29.640Z,57.10
2018-08-28T17:20:10.351Z,57.20
2018-08-28T17:22:53.897Z,57.60
2018-08-28T17:25:34.415Z,58.10
2018-08-28T17:28:15.019Z,58.70
2018-08-28T17:30:56.880Z,59.10
2018-08-28T17:33:37.495Z,59.20
2018-08-28T17:36:18.040Z,59.30
2018-08-28T17:39:01.273Z,60.80
2018-08-28T17:41:41.871Z,61.20
2018-08-28T17:44:22.471Z,61.40
2018-08-28T17:47:02.933Z,62.30
2018-08-28T17:49:43.444Z,62.80
2018-08-28T17:52:24.074Z,63.50
2018-08-28T17:55:04.545Z,64.10
2018-08-28T17:57:45.165Z,64.80
2018-08-28T18:00:27.607Z,64.70
2018-08-28T18:03:08.188Z,64.20
2018-08-28T18:05:48.813Z,64.60
2018-08-28T18:08:32.088Z,65.20
2018-08-28T18:11:14.026Z,65.60
2018-08-28T18:14:02.956Z,65.50
2018-08-28T18:16:43.676Z,65.60
2018-08-28T18:19:24.260Z,65.40
2018-08-28T18:22:05.337Z,65.50
2018-08-28T18:24:45.902Z,66.30
2018-08-28T18:27:27.244Z,66.00
2018-08-28T18:30:08.477Z,66.60
2018-08-28T18:32:49.083Z,67.40
2018-08-28T18:35:31.429Z,68.00
2018-08-28T18:38:13.727Z,68.20
2018-08-28T18:40:54.689Z,67.60
2018-08-28T18:44:13.118Z,68.40
2018-08-28T18:46:54.892Z,68.70
2018-08-28T18:49:35.418Z,69.40
2018-08-28T18:52:15.964Z,69.80
2018-08-28T18:55:01.784Z,70.70
2018-08-28T18:57:52.625Z,70.70
2018-08-28T19:00:36.690Z,70.80
2018-08-28T19:03:18.502Z,70.80
2018-08-28T19:09:13.690Z,70.80
2018-08-28T19:12:05.992Z,69.80
2018-08-28T19:14:53.630Z,70.30
2018-08-28T19:17:35.279Z,70.70
2018-08-28T19:20:22.871Z,70.80
2018-08-28T19:23:05.147Z,70.70
2018-08-28T19:25:45.713Z,70.30
2018-08-28T19:28:27.188Z,71.00
2018-08-28T19:31:07.654Z,70.60
2018-08-28T19:33:48.666Z,70.60
2018-08-28T19:36:31.157Z,71.30
2018-08-28T19:39:11.846Z,71.20
2018-08-28T19:41:52.518Z,71.20
2018-08-28T19:44:33.752Z,71.80
2018-08-28T19:47:14.472Z,71.70
2018-08-28T19:49:55.026Z,72.00
2018-08-28T19:52:44.472Z,72.10
2018-08-28T19:55:25.097Z,72.50
2018-08-28T19:58:05.645Z,73.20
2018-08-28T20:00:46.112Z,72.90
2018-08-28T20:03:27.213Z,72.40
2018-08-28T20:06:07.774Z,72.80
2018-08-28T20:08:48.281Z,72.50
2018-08-28T20:11:30.444Z,72.60
2018-08-28T20:14:11.000Z,73.20
2018-08-28T20:16:51.424Z,73.20
2018-08-28T20:19:33.155Z,72.90
2018-08-28T20:22:13.833Z,73.20
2018-08-28T20:24:54.525Z,73.10
2018-08-28T20:27:35.120Z,73.20
2018-08-28T20:30:15.763Z,74.20
2018-08-28T20:32:57.716Z,74.40
2018-08-28T20:35:38.284Z,74.60
2018-08-28T20:38:18.708Z,73.80
2018-08-28T20:41:01.481Z,74.20
2018-08-28T20:43:41.949Z,74.20
2018-08-28T20:46:22.535Z,74.30
2018-08-28T20:49:03.288Z,73.90
2018-08-28T20:51:44.108Z,73.90
2018-08-28T20:54:24.927Z,73.80
2018-08-28T20:57:05.709Z,73.90
2018-08-28T20:59:46.314Z,73.50
2018-08-28T21:02:28.888Z,75.00
2018-08-28T21:05:09.425Z,73.50
2018-08-28T21:07:50.449Z,74.60
2018-08-28T21:10:32.533Z,75.00
2018-08-28T21:13:12.986Z,75.10
2018-08-28T21:15:53.628Z,74.90
2018-08-28T21:18:34.243Z,74.80
2018-08-28T21:21:15.141Z,74.70
2018-08-28T21:23:55.800Z,74.80
2018-08-28T21:26:36.780Z,73.40
2018-08-28T21:29:17.259Z,73.60
2018-08-28T21:32:00.784Z,73.10
2018-08-28T21:34:41.565Z,74.30
2018-08-28T21:37:22.179Z,75.20
2018-08-28T21:40:04.088Z,75.70
2018-08-28T21:42:44.641Z,75.70
2018-08-28T21:45:25.228Z,75.90
2018-08-28T21:48:05.853Z,76.00
2018-08-28T21:50:46.418Z,75.70
2018-08-28T21:53:28.025Z,75.70
2018-08-28T21:56:08.534Z,75.70
2018-08-28T21:58:49.076Z,75.80
2018-08-28T22:01:31.925Z,76.00
2018-08-28T22:04:12.482Z,77.20
2018-08-28T22:06:58.463Z,76.60
2018-08-28T22:09:38.952Z,76.20
2018-08-28T22:12:19.367Z,76.00
2018-08-28T22:15:02.021Z,76.10
2018-08-28T22:17:42.927Z,76.00
2018-08-28T22:20:23.297Z,76.30
2018-08-28T22:23:03.931Z,76.50
2018-08-28T22:25:44.593Z,76.30
2018-08-28T22:28:25.243Z,76.10
2018-08-28T22:31:05.786Z,75.50
2018-08-28T22:33:46.200Z,75.40
2018-08-28T22:36:28.127Z,75.80
2018-08-28T22:39:08.657Z,76.10
2018-08-28T22:41:49.237Z,76.70
2018-08-28T22:44:31.961Z,77.00
2018-08-28T22:47:12.541Z,76.80
2018-08-28T22:49:53.064Z,76.90
2018-08-28T22:52:33.673Z,76.70
2018-08-28T22:55:14.259Z,76.60
2018-08-28T22:57:54.817Z,77.20
2018-08-28T23:00:35.372Z,77.50
2018-08-28T23:03:15.974Z,77.50
2018-08-28T23:05:57.884Z,79.00
2018-08-28T23:08:38.317Z,78.10
2018-08-28T23:11:18.795Z,78.70
2018-08-28T23:14:01.872Z,79.40
2018-08-28T23:16:42.428Z,79.20
2018-08-28T23:19:22.980Z,80.40
2018-08-28T23:22:03.631Z,80.10
2018-08-28T23:24:44.244Z,80.10
2018-08-28T23:27:24.856Z,82.10
2018-08-28T23:30:05.965Z,81.40
2018-08-28T23:32:46.792Z,82.10
2018-08-28T23:35:28.747Z,82.10
2018-08-28T23:38:09.262Z,82.00
2018-08-28T23:40:49.842Z,82.00
2018-08-28T23:43:31.849Z,82.00
2018-08-28T23:46:12.327Z,82.00
2018-08-28T23:48:52.876Z,82.00
2018-08-28T23:51:33.601Z,81.90
2018-08-28T23:54:14.104Z,81.90
2018-08-28T23:56:54.671Z,81.80
2018-08-28T23:59:35.252Z,81.70
